createdAt,value
2018-08-23T00:01:11.600Z,25.9
2018-08-23T00:01:21.235Z,25.9
2018-08-23T00:02:12.414Z,25.8
2018-08-23T00:03:01.781Z,25.8
2018-08-23T00:03:53.014Z,25.8
2018-08-23T00:04:41.795Z,25.8
2018-08-23T00:05:31.668Z,25.8
2018-08-23T00:06:21.783Z,25.8
2018-08-23T00:07:12.745Z,25.8
2018-08-23T00:08:03.053Z,25.8
2018-08-23T00:08:53.395Z,25.8
2018-08-23T00:09:43.018Z,25.8
2018-08-23T00:10:33.246Z,25.8
2018-08-23T00:11:23.085Z,25.8
2018-08-23T00:12:13.048Z,25.8
2018-08-23T00:31:29.847Z,25.8
2018-08-23T00:32:20.270Z,25.8
2018-08-23T00:33:10.007Z,25.8
2018-08-23T00:34:00.025Z,25.8
2018-08-23T00:34:50.469Z,25.8
2018-08-23T00:35:40.480Z,25.8
2018-08-23T00:36:29.651Z,25.8
2018-08-23T00:37:20.586Z,25.8
2018-08-23T00:38:09.529Z,25.8
2018-08-23T00:39:00.447Z,25.8
2018-08-23T00:39:50.786Z,25.8
2018-08-23T00:40:40.931Z,25.8
2018-08-23T00:41:30.675Z,25.8
2018-08-23T00:42:20.735Z,25.8
2018-08-23T00:43:11.028Z,25.8
2018-08-23T00:44:00.540Z,25.8
2018-08-23T00:44:48.894Z,25.8
2018-08-23T00:45:40.701Z,25.8
2018-08-23T00:46:30.803Z,25.8
2018-08-23T00:47:21.036Z,25.8
2018-08-23T00:48:11.132Z,25.8
2018-08-23T00:49:00.347Z,25.8
2018-08-23T00:49:51.253Z,25.8
2018-08-23T00:50:39.863Z,25.8
2018-08-23T00:51:30.215Z,25.8
2018-08-23T00:52:21.513Z,25.8
2018-08-23T00:53:12.143Z,25.8
2018-08-23T00:54:01.103Z,25.8
2018-08-23T00:54:52.273Z,25.8
2018-08-23T00:55:41.672Z,25.8
2018-08-23T00:56:31.193Z,25.8
2018-08-23T00:57:21.260Z,25.8
2018-08-23T00:58:11.869Z,25.8
2018-08-23T00:59:02.531Z,25.8
2018-08-23T00:59:52.535Z,25.8
2018-08-23T01:00:42.063Z,25.8
2018-08-23T01:01:32.727Z,25.8
2018-08-23T01:02:22.743Z,25.8
2018-08-23T01:03:12.275Z,25.8
2018-08-23T01:04:02.301Z,25.8
2018-08-23T01:04:52.927Z,25.8
2018-08-23T01:05:42.710Z,25.8
2018-08-23T01:06:33.078Z,25.8
2018-08-23T01:07:23.130Z,25.8
2018-08-23T01:08:12.384Z,25.8
2018-08-23T01:09:02.987Z,25.8
2018-08-23T01:09:53.330Z,25.8
2018-08-23T01:10:42.839Z,25.7
2018-08-23T01:11:32.952Z,25.7
2018-08-23T01:12:23.528Z,25.7
2018-08-23T01:13:13.555Z,25.8
2018-08-23T01:14:03.322Z,25.7
2018-08-23T01:14:52.893Z,25.7
2018-08-23T01:15:42.627Z,25.7
2018-08-23T01:16:32.975Z,25.7
2018-08-23T01:17:23.360Z,25.7
2018-08-23T01:18:11.694Z,25.7
2018-08-23T01:19:03.202Z,25.7
2018-08-23T01:19:53.875Z,25.7
2018-08-23T01:20:43.037Z,25.7
2018-08-23T01:21:34.282Z,25.7
2018-08-23T01:22:24.115Z,25.7
2018-08-23T01:23:14.147Z,25.7
2018-08-23T01:24:03.592Z,25.7
2018-08-23T01:24:53.981Z,25.7
2018-08-23T01:25:43.438Z,25.7
2018-08-23T01:26:34.076Z,25.7
2018-08-23T01:27:24.693Z,25.7
2018-08-23T01:28:14.209Z,25.7
2018-08-23T01:29:04.267Z,25.7
2018-08-23T01:29:53.746Z,25.7
2018-08-23T01:30:44.681Z,25.7
2018-08-23T01:31:34.786Z,25.7
2018-08-23T01:32:24.835Z,25.7
2018-08-23T01:33:14.607Z,25.7
2018-08-23T01:34:04.069Z,25.7
2018-08-23T01:34:54.690Z,25.7
2018-08-23T01:35:45.355Z,25.7
2018-08-23T01:36:35.371Z,25.7
2018-08-23T01:37:25.411Z,25.7
2018-08-23T01:38:14.680Z,25.7
2018-08-23T01:39:04.991Z,25.7
2018-08-23T01:39:55.030Z,25.7
2018-08-23T01:40:45.388Z,25.7
2018-08-23T01:41:35.508Z,25.6
2018-08-23T01:42:24.744Z,25.6
2018-08-23T01:43:15.879Z,25.6
2018-08-23T01:44:05.902Z,25.6
2018-08-23T01:44:55.415Z,25.6
2018-08-23T01:45:44.658Z,25.7
2018-08-23T01:46:35.265Z,25.6
2018-08-23T01:47:25.584Z,25.7
2018-08-23T01:48:15.981Z,25.6
2018-08-23T01:49:05.780Z,25.7
2018-08-23T01:49:55.800Z,25.7
2018-08-23T01:50:45.573Z,25.6
2018-08-23T01:51:35.200Z,25.6
2018-08-23T01:52:26.562Z,25.6
2018-08-23T01:53:15.832Z,25.6
2018-08-23T01:54:06.234Z,25.6
2018-08-23T01:54:56.202Z,25.6
2018-08-23T01:55:45.256Z,25.6
2018-08-23T01:56:35.872Z,25.6
2018-08-23T01:57:25.595Z,25.6
2018-08-23T01:58:15.892Z,25.6
2018-08-23T01:59:06.941Z,25.6
2018-08-23T01:59:56.029Z,25.6
2018-08-23T02:00:45.856Z,25.6
2018-08-23T02:01:36.513Z,25.6
2018-08-23T02:02:27.084Z,25.6
2018-08-23T02:03:17.229Z,25.6
2018-08-23T02:04:06.404Z,25.6
2018-08-23T02:04:56.731Z,25.6
2018-08-23T02:05:47.084Z,25.6
2018-08-23T02:06:36.269Z,25.6
2018-08-23T02:07:26.369Z,25.6
2018-08-23T02:08:17.881Z,25.6
2018-08-23T02:09:06.471Z,25.6
2018-08-23T02:09:57.647Z,25.6
2018-08-23T02:10:47.951Z,25.6
2018-08-23T02:11:37.789Z,25.6
2018-08-23T02:12:28.057Z,25.6
2018-08-23T02:13:17.931Z,25.6
2018-08-23T02:14:07.373Z,25.6
2018-08-23T02:14:58.313Z,25.6
2018-08-23T02:15:47.816Z,25.6
2018-08-23T02:16:37.614Z,25.6
2018-08-23T02:17:28.482Z,25.6
2018-08-23T02:18:18.265Z,25.6
2018-08-23T02:19:07.898Z,25.6
2018-08-23T02:19:57.683Z,25.6
2018-08-23T02:20:48.200Z,25.6
2018-08-23T02:21:38.513Z,25.6
2018-08-23T02:22:28.099Z,25.6
2018-08-23T02:23:18.627Z,25.6
2018-08-23T02:24:08.730Z,25.6
2018-08-23T02:24:58.608Z,25.6
2018-08-23T02:25:47.798Z,25.6
2018-08-23T02:26:38.405Z,25.6
2018-08-23T02:27:26.700Z,25.6
2018-08-23T02:28:18.521Z,25.6
2018-08-23T02:29:08.105Z,25.6
2018-08-23T02:29:59.005Z,25.6
2018-08-23T02:30:49.049Z,25.6
2018-08-23T02:31:39.081Z,25.6
2018-08-23T02:32:28.521Z,25.6
2018-08-23T02:33:19.209Z,25.6
2018-08-23T02:34:09.793Z,25.6
2018-08-23T02:34:59.049Z,25.6
2018-08-23T02:35:49.648Z,25.6
2018-08-23T02:36:39.696Z,25.6
2018-08-23T02:37:29.185Z,25.6
2018-08-23T02:38:20.567Z,25.6
2018-08-23T02:39:09.364Z,25.6
2018-08-23T02:39:59.723Z,25.5
2018-08-23T02:40:49.478Z,25.6
2018-08-23T02:41:39.817Z,25.6
2018-08-23T02:42:30.155Z,25.6
2018-08-23T02:43:20.381Z,25.5
2018-08-23T02:44:09.225Z,25.5
2018-08-23T02:44:59.585Z,25.5
2018-08-23T02:45:50.191Z,25.5
2018-08-23T02:46:40.471Z,25.5
2018-08-23T02:47:30.574Z,25.5
2018-08-23T02:48:20.863Z,25.5
2018-08-23T02:49:10.990Z,25.5
2018-08-23T02:50:00.725Z,25.5
2018-08-23T02:50:51.124Z,25.5
2018-08-23T02:51:40.858Z,25.5
2018-08-23T02:52:30.282Z,25.5
2018-08-23T02:53:20.402Z,25.5
2018-08-23T02:54:10.439Z,25.5
2018-08-23T02:55:00.817Z,25.5
2018-08-23T02:55:50.297Z,25.5
2018-08-23T02:56:40.957Z,25.5
2018-08-23T02:57:30.147Z,25.5
2018-08-23T02:58:21.367Z,25.5
2018-08-23T02:59:11.519Z,25.4
2018-08-23T03:00:01.525Z,25.5
2018-08-23T03:00:50.187Z,25.5
2018-08-23T03:01:41.954Z,25.5
2018-08-23T03:02:31.387Z,25.4
2018-08-23T03:03:21.811Z,25.4
2018-08-23T03:04:12.173Z,25.4
2018-08-23T03:05:01.093Z,25.4
2018-08-23T03:05:51.131Z,25.4
2018-08-23T03:06:42.365Z,25.4
2018-08-23T03:07:31.627Z,25.4
2018-08-23T03:08:21.626Z,25.4
2018-08-23T03:09:12.220Z,25.4
2018-08-23T03:10:02.043Z,25.4
2018-08-23T03:10:51.804Z,25.4
2018-08-23T03:11:42.422Z,25.4
2018-08-23T03:12:32.481Z,25.4
2018-08-23T03:13:22.024Z,25.4
2018-08-23T03:14:12.637Z,25.4
2018-08-23T03:15:02.381Z,25.4
2018-08-23T03:15:52.187Z,25.4
2018-08-23T03:16:43.151Z,25.4
2018-08-23T03:17:32.618Z,25.4
2018-08-23T03:18:22.925Z,25.4
2018-08-23T03:19:12.718Z,25.4
2018-08-23T03:20:03.149Z,25.4
2018-08-23T03:20:53.096Z,25.4
2018-08-23T03:21:43.425Z,25.4
2018-08-23T03:22:32.646Z,25.4
2018-08-23T03:23:22.731Z,25.4
2018-08-23T03:24:13.329Z,25.4
2018-08-23T03:25:03.154Z,25.4
2018-08-23T03:25:53.230Z,25.4
2018-08-23T03:26:43.842Z,25.4
2018-08-23T03:27:33.037Z,25.4
2018-08-23T03:28:23.415Z,25.4
2018-08-23T03:29:13.756Z,25.4
2018-08-23T03:30:03.530Z,25.4
2018-08-23T03:30:53.960Z,25.3
2018-08-23T03:31:43.677Z,25.3
2018-08-23T03:32:33.218Z,25.4
2018-08-23T03:33:23.215Z,25.4
2018-08-23T03:34:14.450Z,25.4
2018-08-23T03:35:03.355Z,25.3
2018-08-23T03:35:54.266Z,25.3
2018-08-23T03:36:44.006Z,25.3
2018-08-23T03:37:34.167Z,25.3
2018-08-23T03:38:24.762Z,25.3
2018-08-23T03:39:14.737Z,25.3
2018-08-23T03:40:04.442Z,25.3
2018-08-23T03:40:54.384Z,25.3
2018-08-23T03:41:44.472Z,25.3
2018-08-23T03:42:34.526Z,25.3
2018-08-23T03:43:25.079Z,25.3
2018-08-23T03:44:13.772Z,25.3
2018-08-23T03:45:04.721Z,25.3
2018-08-23T03:45:55.116Z,25.3
2018-08-23T03:46:45.071Z,25.3
2018-08-23T03:47:34.590Z,25.3
2018-08-23T03:48:25.537Z,25.3
2018-08-23T03:49:15.009Z,25.3
2018-08-23T03:50:03.678Z,25.3
2018-08-23T03:50:54.284Z,25.3
2018-08-23T03:51:44.997Z,25.3
2018-08-23T03:52:35.182Z,25.3
2018-08-23T03:53:24.744Z,25.3
2018-08-23T03:54:15.425Z,25.3
2018-08-23T03:55:04.400Z,25.3
2018-08-23T03:55:55.799Z,25.3
2018-08-23T03:56:44.978Z,25.3
2018-08-23T03:57:35.389Z,25.3
2018-08-23T03:58:25.161Z,25.3
2018-08-23T03:59:16.026Z,25.3
2018-08-23T04:00:06.465Z,25.3
2018-08-23T04:00:56.196Z,25.3
2018-08-23T04:01:46.733Z,25.2
2018-08-23T04:02:35.740Z,25.3
2018-08-23T04:03:25.804Z,25.3
2018-08-23T04:04:16.173Z,25.3
2018-08-23T04:05:05.650Z,25.2
2018-08-23T04:05:56.298Z,25.3
2018-08-23T04:06:46.099Z,25.2
2018-08-23T04:07:35.851Z,25.2
2018-08-23T04:08:26.754Z,25.2
2018-08-23T04:09:15.942Z,25.2
2018-08-23T04:10:07.177Z,25.2
2018-08-23T04:10:56.372Z,25.2
2018-08-23T04:11:46.998Z,25.2
2018-08-23T04:12:36.515Z,25.2
2018-08-23T04:13:27.418Z,25.2
2018-08-23T04:14:16.727Z,25.2
2018-08-23T04:15:06.752Z,25.2
2018-08-23T04:15:57.095Z,25.2
2018-08-23T04:16:47.197Z,25.2
2018-08-23T04:17:36.617Z,25.2
2018-08-23T04:18:27.276Z,25.2
2018-08-23T04:19:17.617Z,25.2
2018-08-23T04:20:07.983Z,25.2
2018-08-23T04:20:58.083Z,25.2
2018-08-23T04:21:47.847Z,25.2
2018-08-23T04:22:37.895Z,25.2
2018-08-23T04:23:27.385Z,25.2
2018-08-23T04:24:17.454Z,25.2
2018-08-23T04:25:08.129Z,25.2
2018-08-23T04:25:58.136Z,25.2
2018-08-23T04:26:48.470Z,25.2
2018-08-23T04:27:37.985Z,25.2
2018-08-23T04:28:27.810Z,25.2
2018-08-23T04:29:17.774Z,25.2
2018-08-23T04:30:06.999Z,25.1
2018-08-23T04:30:58.242Z,25.2
2018-08-23T04:31:48.596Z,25.1
2018-08-23T04:32:38.088Z,25.1
2018-08-23T04:33:28.401Z,25.2
2018-08-23T04:34:17.883Z,25.1
2018-08-23T04:35:08.804Z,25.1
2018-08-23T04:35:59.165Z,25.1
2018-08-23T04:36:48.676Z,25.1
2018-08-23T04:37:38.778Z,25.1
2018-08-23T04:38:28.568Z,25.1
2018-08-23T04:39:19.113Z,25.1
2018-08-23T04:40:08.691Z,25.1
2018-08-23T04:40:58.809Z,25.1
2018-08-23T04:41:49.334Z,25.1
2018-08-23T04:42:38.546Z,25.1
2018-08-23T05:00:35.490Z,25.1
2018-08-23T05:01:26.437Z,25.1
2018-08-23T05:02:15.963Z,25.1
2018-08-23T05:03:06.267Z,25.1
2018-08-23T05:03:56.428Z,25.1
2018-08-23T05:04:46.361Z,25.1
2018-08-23T05:05:37.008Z,25.1
2018-08-23T05:06:26.563Z,25.1
2018-08-23T05:07:16.872Z,25.1
2018-08-23T05:08:07.166Z,25.1
2018-08-23T05:08:56.951Z,25.1
2018-08-23T05:09:47.011Z,25.1
2018-08-23T05:10:36.695Z,25.1
2018-08-23T05:11:26.938Z,25.1
2018-08-23T05:12:17.204Z,25.1
2018-08-23T05:13:07.593Z,25.1
2018-08-23T05:13:57.455Z,25.1
2018-08-23T05:14:47.369Z,25.1
2018-08-23T05:15:36.952Z,25.1
2018-08-23T05:16:26.983Z,25.1
2018-08-23T05:17:16.550Z,25.1
2018-08-23T05:18:07.120Z,25.1
2018-08-23T05:18:57.265Z,25.1
2018-08-23T05:19:47.595Z,25.1
2018-08-23T05:20:37.952Z,25.1
2018-08-23T05:21:27.111Z,25.1
2018-08-23T05:22:17.944Z,25.1
2018-08-23T05:23:08.463Z,25
2018-08-23T05:23:58.151Z,25.1
2018-08-23T05:24:48.468Z,25.1
2018-08-23T05:25:38.544Z,25.1
2018-08-23T05:26:28.044Z,25.1
2018-08-23T05:27:18.112Z,25.1
2018-08-23T05:28:08.448Z,25.1
2018-08-23T05:28:58.530Z,25.1
2018-08-23T05:29:49.608Z,25.1
2018-08-23T05:30:38.691Z,25.1
2018-08-23T05:31:28.689Z,25.1
2018-08-23T05:32:18.737Z,25.1
2018-08-23T05:33:09.119Z,25.1
2018-08-23T05:33:58.576Z,25.1
2018-08-23T05:34:48.406Z,25.1
2018-08-23T05:35:38.476Z,25.1
2018-08-23T05:36:29.096Z,25.1
2018-08-23T05:37:18.910Z,25.1
2018-08-23T05:38:09.471Z,25.1
2018-08-23T05:38:59.103Z,25.1
2018-08-23T05:39:48.769Z,25.1
2018-08-23T05:40:39.385Z,25.1
2018-08-23T05:41:28.890Z,25.1
2018-08-23T05:42:18.932Z,25.1
2018-08-23T05:43:09.267Z,25.1
2018-08-23T05:43:59.643Z,25.1
2018-08-23T05:44:49.688Z,25.1
2018-08-23T05:45:39.757Z,25.1
2018-08-23T05:46:30.555Z,25.1
2018-08-23T05:47:19.387Z,25.1
2018-08-23T05:48:09.810Z,25.1
2018-08-23T05:49:00.079Z,25.1
2018-08-23T05:49:50.085Z,25.1
2018-08-23T05:50:39.971Z,25.1
2018-08-23T05:51:30.235Z,25.1
2018-08-23T05:52:20.303Z,25.1
2018-08-23T05:53:09.800Z,25.1
2018-08-23T05:54:00.438Z,25.1
2018-08-23T05:54:49.952Z,25.1
2018-08-23T05:55:40.682Z,25.1
2018-08-23T05:56:30.259Z,25.1
2018-08-23T05:57:20.690Z,25.1
2018-08-23T05:58:10.496Z,25.1
2018-08-23T05:59:00.548Z,25.1
2018-08-23T05:59:51.200Z,25.1
2018-08-23T06:00:40.727Z,25.1
2018-08-23T06:01:31.304Z,25.1
2018-08-23T06:02:20.802Z,25.1
2018-08-23T06:03:11.190Z,25.1
2018-08-23T06:04:00.629Z,25.1
2018-08-23T06:04:51.279Z,25
2018-08-23T06:05:41.331Z,25
2018-08-23T06:06:31.376Z,25
2018-08-23T06:07:21.516Z,25
2018-08-23T06:08:10.757Z,25
2018-08-23T06:09:01.859Z,25
2018-08-23T06:09:51.623Z,25
2018-08-23T06:10:41.953Z,25
2018-08-23T06:11:31.558Z,25
2018-08-23T06:12:21.561Z,25
2018-08-23T06:13:11.647Z,25
2018-08-23T06:14:01.859Z,25
2018-08-23T06:14:52.328Z,25
2018-08-23T06:15:42.350Z,25
2018-08-23T06:16:32.153Z,25
2018-08-23T06:17:21.656Z,25
2018-08-23T06:18:12.524Z,25
2018-08-23T06:19:02.323Z,25
2018-08-23T06:19:53.024Z,25
2018-08-23T06:20:42.740Z,25
2018-08-23T06:21:32.300Z,25
2018-08-23T06:22:22.950Z,25
2018-08-23T06:23:12.114Z,25
2018-08-23T06:24:01.089Z,24.9
2018-08-23T06:24:51.418Z,25
2018-08-23T06:25:41.946Z,24.9
2018-08-23T06:26:31.463Z,24.9
2018-08-23T06:27:20.828Z,24.9
2018-08-23T06:28:12.472Z,24.9
2018-08-23T06:29:01.654Z,24.9
2018-08-23T06:29:51.812Z,24.9
2018-08-23T06:30:41.222Z,24.9
2018-08-23T06:31:31.081Z,24.9
2018-08-23T06:32:20.952Z,24.9
2018-08-23T06:33:12.803Z,24.9
2018-08-23T06:34:03.435Z,24.9
2018-08-23T06:34:52.007Z,24.9
2018-08-23T06:35:41.714Z,24.9
2018-08-23T06:36:32.284Z,24.9
2018-08-23T06:37:22.147Z,24.9
2018-08-23T06:38:12.088Z,24.9
2018-08-23T06:39:02.326Z,24.9
2018-08-23T06:39:52.520Z,24.9
2018-08-23T06:40:42.979Z,24.9
2018-08-23T06:41:33.019Z,24.9
2018-08-23T06:42:23.439Z,24.9
2018-08-23T06:43:12.836Z,24.9
2018-08-23T06:44:02.827Z,24.9
2018-08-23T06:44:53.108Z,24.9
2018-08-23T06:45:43.009Z,24.9
2018-08-23T06:46:32.838Z,24.9
2018-08-23T06:47:23.030Z,24.9
2018-08-23T06:48:13.397Z,24.9
2018-08-23T06:49:03.924Z,24.9
2018-08-23T06:49:52.962Z,24.9
2018-08-23T06:50:42.637Z,24.9
2018-08-23T06:51:33.348Z,24.9
2018-08-23T06:52:23.219Z,24.8
2018-08-23T06:53:14.169Z,24.9
2018-08-23T06:54:03.691Z,24.9
2018-08-23T06:54:53.919Z,24.8
2018-08-23T06:55:44.187Z,24.8
2018-08-23T06:56:34.021Z,24.8
2018-08-23T06:57:23.586Z,24.8
2018-08-23T06:58:14.172Z,24.8
2018-08-23T06:59:04.321Z,24.8
2018-08-23T06:59:53.846Z,24.8
2018-08-23T07:00:44.226Z,24.8
2018-08-23T07:01:34.666Z,24.8
2018-08-23T07:02:24.644Z,24.8
2018-08-23T07:03:14.738Z,24.8
2018-08-23T07:04:05.231Z,24.8
2018-08-23T07:04:55.449Z,24.8
2018-08-23T07:05:44.111Z,24.8
2018-08-23T07:06:35.334Z,24.8
2018-08-23T07:07:25.054Z,24.8
2018-08-23T07:08:15.106Z,24.8
2018-08-23T07:09:04.878Z,24.8
2018-08-23T07:09:54.751Z,24.8
2018-08-23T07:10:45.833Z,24.8
2018-08-23T07:11:34.940Z,24.8
2018-08-23T07:12:25.158Z,24.8
2018-08-23T07:13:15.290Z,24.8
2018-08-23T07:14:04.900Z,24.8
2018-08-23T07:14:55.465Z,24.8
2018-08-23T07:15:44.470Z,24.8
2018-08-23T07:16:35.453Z,24.8
2018-08-23T07:17:25.213Z,24.8
2018-08-23T07:18:15.497Z,24.8
2018-08-23T07:19:05.314Z,24.8
2018-08-23T07:19:55.785Z,24.8
2018-08-23T07:20:45.657Z,24.8
2018-08-23T07:21:35.207Z,24.8
2018-08-23T07:22:26.171Z,24.8
2018-08-23T07:23:14.199Z,24.8
2018-08-23T07:24:05.283Z,24.8
2018-08-23T07:24:55.708Z,24.8
2018-08-23T07:25:45.775Z,24.8
2018-08-23T07:26:36.500Z,24.8
2018-08-23T07:27:26.206Z,24.8
2018-08-23T07:28:17.049Z,24.8
2018-08-23T07:29:06.880Z,24.8
2018-08-23T07:30:00.144Z,24.8
2018-08-23T07:30:47.291Z,24.8
2018-08-23T07:31:38.386Z,24.8
2018-08-23T07:32:27.813Z,24.8
2018-08-23T07:33:19.187Z,24.8
2018-08-23T07:34:08.701Z,24.8
2018-08-23T07:34:58.281Z,24.8
2018-08-23T07:35:48.690Z,24.8
2018-08-23T07:36:37.774Z,24.8
2018-08-23T07:37:27.114Z,24.8
2018-08-23T07:38:18.540Z,24.9
2018-08-23T07:39:09.054Z,24.9
2018-08-23T07:39:58.553Z,24.9
2018-08-23T07:40:49.025Z,24.8
2018-08-23T07:41:38.834Z,24.9
2018-08-23T07:42:28.665Z,24.9
2018-08-23T07:43:18.820Z,24.9
2018-08-23T07:44:08.712Z,24.9
2018-08-23T07:44:58.801Z,24.9
2018-08-23T07:45:49.451Z,24.9
2018-08-23T07:46:38.384Z,24.9
2018-08-23T07:47:29.272Z,24.9
2018-08-23T07:48:18.501Z,24.9
2018-08-23T07:49:09.174Z,24.9
2018-08-23T07:49:59.883Z,24.9
2018-08-23T07:50:49.259Z,24.9
2018-08-23T07:51:39.884Z,24.9
2018-08-23T07:52:30.212Z,24.9
2018-08-23T07:53:21.961Z,24.9
2018-08-23T07:54:09.768Z,24.9
2018-08-23T07:54:59.342Z,24.9
2018-08-23T07:55:50.206Z,24.9
2018-08-23T07:56:39.771Z,24.9
2018-08-23T07:57:29.758Z,24.9
2018-08-23T07:58:20.132Z,24.9
2018-08-23T07:59:10.413Z,24.9
2018-08-23T07:59:59.943Z,24.9
2018-08-23T08:00:50.323Z,25
2018-08-23T08:01:40.267Z,25
2018-08-23T08:02:30.380Z,25
2018-08-23T08:03:20.465Z,24.9
2018-08-23T08:04:10.620Z,25
2018-08-23T08:05:00.422Z,25
2018-08-23T08:05:50.530Z,25
2018-08-23T08:06:39.888Z,25
2018-08-23T08:07:31.108Z,25
2018-08-23T08:08:20.854Z,25
2018-08-23T08:09:10.654Z,25
2018-08-23T08:10:00.427Z,25
2018-08-23T08:10:51.370Z,25
2018-08-23T08:11:41.407Z,25
2018-08-23T08:12:30.631Z,25.1
2018-08-23T08:13:21.284Z,25.1
2018-08-23T08:14:11.663Z,25
2018-08-23T08:15:02.753Z,25.1
2018-08-23T08:15:51.451Z,25
2018-08-23T08:16:41.538Z,25.1
2018-08-23T08:17:30.858Z,25.1
2018-08-23T08:18:21.410Z,25.1
2018-08-23T08:19:11.451Z,25.1
2018-08-23T08:20:01.784Z,25.1
2018-08-23T08:20:52.610Z,25.1
2018-08-23T08:21:42.320Z,25.1
2018-08-23T08:22:32.336Z,25.1
2018-08-23T08:23:22.108Z,25.1
2018-08-23T08:24:11.084Z,25.1
2018-08-23T08:25:02.495Z,25.1
2018-08-23T08:25:52.577Z,25.1
2018-08-23T08:26:41.748Z,25.1
2018-08-23T08:27:31.844Z,25.1
2018-08-23T08:28:22.496Z,25.1
2018-08-23T08:29:12.965Z,25.1
2018-08-23T08:30:02.705Z,25.1
2018-08-23T08:30:52.330Z,25.1
2018-08-23T08:31:42.753Z,25.1
2018-08-23T08:32:33.283Z,25.1
2018-08-23T08:33:23.694Z,25.1
2018-08-23T08:34:12.663Z,25.1
2018-08-23T08:35:03.078Z,25.1
2018-08-23T08:35:52.556Z,25.1
2018-08-23T08:36:43.413Z,25.1
2018-08-23T08:37:33.773Z,25.1
2018-08-23T08:38:23.353Z,25.1
2018-08-23T08:39:13.403Z,25.1
2018-08-23T08:40:03.659Z,25.1
2018-08-23T08:40:53.759Z,25.1
2018-08-23T08:41:43.221Z,25.1
2018-08-23T08:42:33.859Z,25.1
2018-08-23T08:43:23.325Z,25.1
2018-08-23T08:44:14.097Z,25.2
2018-08-23T08:45:03.695Z,25.1
2018-08-23T08:45:54.114Z,25.2
2018-08-23T08:46:44.205Z,25.2
2018-08-23T08:47:34.301Z,25.2
2018-08-23T08:48:23.418Z,25.2
2018-08-23T08:49:13.435Z,25.2
2018-08-23T08:50:03.569Z,25.2
2018-08-23T08:50:55.195Z,25.2
2018-08-23T08:51:43.616Z,25.2
2018-08-23T08:52:34.372Z,25.2
2018-08-23T08:53:24.448Z,25.2
2018-08-23T08:54:14.797Z,25.2
2018-08-23T08:55:04.596Z,25.3
2018-08-23T08:55:54.211Z,25.3
2018-08-23T08:56:45.139Z,25.3
2018-08-23T08:57:35.360Z,25.3
2018-08-23T08:58:25.155Z,25.2
2018-08-23T09:15:03.290Z,25.3
2018-08-23T09:15:53.366Z,25.3
2018-08-23T09:16:43.742Z,25.3
2018-08-23T09:17:33.542Z,25.3
2018-08-23T09:18:23.801Z,25.3
2018-08-23T09:19:13.415Z,25.3
2018-08-23T09:20:04.056Z,25.3
2018-08-23T09:20:54.778Z,25.4
2018-08-23T09:21:43.519Z,25.4
2018-08-23T09:22:33.966Z,25.4
2018-08-23T09:23:23.887Z,25.4
2018-08-23T09:24:13.449Z,25.4
2018-08-23T09:25:04.106Z,25.4
2018-08-23T09:25:54.095Z,25.4
2018-08-23T09:26:44.241Z,25.4
2018-08-23T09:27:34.320Z,25.4
2018-08-23T09:28:23.297Z,25.4
2018-08-23T09:29:13.986Z,25.4
2018-08-23T09:30:04.860Z,25.4
2018-08-23T09:30:53.691Z,25.4
2018-08-23T09:31:44.915Z,25.4
2018-08-23T09:32:34.985Z,25.4
2018-08-23T09:33:24.498Z,25.4
2018-08-23T09:34:15.088Z,25.4
2018-08-23T09:35:05.836Z,25.4
2018-08-23T09:35:54.236Z,25.4
2018-08-23T09:36:45.003Z,25.4
2018-08-23T09:37:34.795Z,25.4
2018-08-23T09:38:24.920Z,25.4
2018-08-23T09:39:14.663Z,25.4
2018-08-23T09:40:05.558Z,25.4
2018-08-23T09:40:55.685Z,25.4
2018-08-23T09:41:45.062Z,25.4
2018-08-23T09:42:35.106Z,25.4
2018-08-23T09:43:25.548Z,25.4
2018-08-23T09:44:15.312Z,25.4
2018-08-23T09:45:05.930Z,25.4
2018-08-23T09:45:55.215Z,25.4
2018-08-23T09:46:45.443Z,25.4
2018-08-23T09:47:34.990Z,25.4
2018-08-23T09:48:25.078Z,25.4
2018-08-23T09:49:15.633Z,25.4
2018-08-23T09:50:06.397Z,25.4
2018-08-23T09:50:57.818Z,25.5
2018-08-23T09:51:46.207Z,25.5
2018-08-23T09:52:36.200Z,25.5
2018-08-23T09:53:26.588Z,25.5
2018-08-23T09:54:15.823Z,25.5
2018-08-23T09:55:06.158Z,25.5
2018-08-23T09:55:55.417Z,25.5
2018-08-23T09:56:47.914Z,25.5
2018-08-23T09:57:36.026Z,25.5
2018-08-23T09:58:26.699Z,25.5
2018-08-23T09:59:16.751Z,25.5
2018-08-23T10:00:06.254Z,25.5
2018-08-23T10:00:56.891Z,25.5
2018-08-23T10:01:46.383Z,25.5
2018-08-23T10:02:36.799Z,25.5
2018-08-23T10:03:27.152Z,25.5
2018-08-23T10:04:18.276Z,25.6
2018-08-23T10:05:07.545Z,25.6
2018-08-23T10:05:56.617Z,25.6
2018-08-23T10:06:46.578Z,25.6
2018-08-23T10:07:36.904Z,25.6
2018-08-23T10:08:27.793Z,25.6
2018-08-23T10:09:17.550Z,25.6
2018-08-23T10:10:07.893Z,25.6
2018-08-23T10:10:57.380Z,25.6
2018-08-23T10:11:49.074Z,25.6
2018-08-23T10:12:37.585Z,25.6
2018-08-23T10:13:27.597Z,25.6
2018-08-23T10:14:17.902Z,25.6
2018-08-23T10:15:07.696Z,25.6
2018-08-23T10:15:57.204Z,25.6
2018-08-23T10:16:47.646Z,25.6
2018-08-23T10:17:38.455Z,25.6
2018-08-23T10:18:26.815Z,25.6
2018-08-23T10:19:18.527Z,25.6
2018-08-23T10:20:08.429Z,25.6
2018-08-23T10:20:57.944Z,25.6
2018-08-23T10:21:48.826Z,25.7
2018-08-23T10:22:38.845Z,25.7
2018-08-23T10:23:28.920Z,25.7
2018-08-23T10:24:18.689Z,25.7
2018-08-23T10:25:09.040Z,25.7
2018-08-23T10:25:59.073Z,25.7
2018-08-23T10:26:49.516Z,25.7
2018-08-23T10:27:39.580Z,25.7
2018-08-23T10:28:28.735Z,25.7
2018-08-23T10:29:19.369Z,25.7
2018-08-23T10:30:09.434Z,25.7
2018-08-23T10:30:58.729Z,25.7
2018-08-23T10:31:49.084Z,25.7
2018-08-23T10:32:39.701Z,25.7
2018-08-23T10:33:29.800Z,25.7
2018-08-23T10:34:19.868Z,25.7
2018-08-23T10:35:09.352Z,25.8
2018-08-23T10:35:59.781Z,25.7
2018-08-23T10:36:49.510Z,25.8
2018-08-23T10:37:39.598Z,25.8
2018-08-23T10:38:29.067Z,25.8
2018-08-23T10:39:20.103Z,25.8
2018-08-23T10:40:10.271Z,25.8
2018-08-23T10:40:59.829Z,25.8
2018-08-23T10:41:49.299Z,25.8
2018-08-23T10:42:39.329Z,25.8
2018-08-23T10:43:29.912Z,25.8
2018-08-23T10:44:20.594Z,25.8
2018-08-23T10:45:09.815Z,25.8
2018-08-23T10:45:59.844Z,25.8
2018-08-23T10:46:50.215Z,25.8
2018-08-23T10:47:40.569Z,25.8
2018-08-23T10:48:30.667Z,25.8
2018-08-23T10:49:20.717Z,25.8
2018-08-23T10:50:10.471Z,25.8
2018-08-23T10:51:00.847Z,25.8
2018-08-23T10:51:50.364Z,25.8
2018-08-23T10:52:41.217Z,25.8
2018-08-23T10:53:31.272Z,25.8
2018-08-23T10:54:21.082Z,25.8
2018-08-23T10:55:11.379Z,25.8
2018-08-23T10:56:01.273Z,25.8
2018-08-23T10:56:51.519Z,25.8
2018-08-23T10:57:41.286Z,25.8
2018-08-23T10:58:31.714Z,25.8
2018-08-23T10:59:21.776Z,25.8
2018-08-23T11:00:11.489Z,25.8
2018-08-23T11:01:01.916Z,25.8
2018-08-23T11:01:51.414Z,25.9
2018-08-23T11:02:41.679Z,25.9
2018-08-23T11:03:31.873Z,25.9
2018-08-23T11:04:21.606Z,25.9
2018-08-23T11:05:11.878Z,25.9
2018-08-23T11:06:01.976Z,25.9
2018-08-23T11:06:51.846Z,25.9
2018-08-23T11:07:42.130Z,25.9
2018-08-23T11:08:32.410Z,25.9
2018-08-23T11:09:22.556Z,25.9
2018-08-23T11:10:12.598Z,25.9
2018-08-23T11:11:02.435Z,25.9
2018-08-23T11:11:52.331Z,25.9
2018-08-23T11:12:42.837Z,25.9
2018-08-23T11:13:32.695Z,25.9
2018-08-23T11:14:22.653Z,25.9
2018-08-23T11:15:12.528Z,25.9
2018-08-23T11:16:02.760Z,25.9
2018-08-23T11:16:54.323Z,25.9
2018-08-23T11:17:43.180Z,26
2018-08-23T11:18:32.977Z,26
2018-08-23T11:19:23.326Z,26
2018-08-23T11:20:12.932Z,26
2018-08-23T11:21:02.905Z,26
2018-08-23T11:21:53.170Z,26
2018-08-23T11:22:43.257Z,26
2018-08-23T11:23:33.119Z,26
2018-08-23T11:24:23.818Z,26.1
2018-08-23T11:25:13.487Z,26.1
2018-08-23T11:26:03.562Z,26.1
2018-08-23T11:26:53.577Z,26.1
2018-08-23T11:27:43.962Z,26.1
2018-08-23T11:28:33.211Z,26.1
2018-08-23T11:29:23.357Z,26.1
2018-08-23T11:30:14.139Z,26.1
2018-08-23T11:31:03.629Z,26.1
2018-08-23T11:31:54.234Z,26.1
2018-08-23T11:32:44.319Z,26.1
2018-08-23T11:33:34.459Z,26.1
2018-08-23T11:34:23.628Z,26.1
2018-08-23T11:35:16.022Z,26.1
2018-08-23T11:36:04.393Z,26.1
2018-08-23T11:36:54.114Z,26.1
2018-08-23T11:37:44.199Z,26.1
2018-08-23T11:38:34.255Z,26.1
2018-08-23T11:39:24.637Z,26.1
2018-08-23T11:40:14.972Z,26.1
2018-08-23T11:41:04.538Z,26.1
2018-08-23T11:41:54.918Z,26.1
2018-08-23T11:42:45.848Z,26.1
2018-08-23T11:43:34.962Z,26.1
2018-08-23T11:44:24.984Z,26.1
2018-08-23T11:45:14.826Z,26.1
2018-08-23T11:46:05.519Z,26.1
2018-08-23T11:46:55.457Z,26.2
2018-08-23T11:47:45.579Z,26.2
2018-08-23T11:48:35.432Z,26.2
2018-08-23T11:49:25.703Z,26.1
2018-08-23T11:50:15.496Z,26.1
2018-08-23T11:51:04.749Z,26.2
2018-08-23T11:51:55.047Z,26.2
2018-08-23T11:52:45.199Z,26.2
2018-08-23T11:53:40.205Z,26.2
2018-08-23T11:54:25.247Z,26.2
2018-08-23T11:55:15.894Z,26.2
2018-08-23T11:56:05.691Z,26.2
2018-08-23T11:56:55.766Z,26.2
2018-08-23T11:57:45.220Z,26.2
2018-08-23T11:58:36.578Z,26.2
2018-08-23T11:59:25.723Z,26.2
2018-08-23T12:00:16.305Z,26.2